London Corbin Airport Magee Field London US
ICAO: KLOZ
IATA: LOZ
Category: Medium
Scheduled Services: No

Elevation: 1212 ft
TransAlt. 18000 ft.

Airport Communications:
ASOS:119.075
INDIANAPOLIS CNTR:121.325
LOUISVILLE RDO:122.2
CTAF/UNICOM:123

KLOZ Zoom In..

Runways:

(A) RW 06 length 5751 ft width 150 ft
ILS 110.90 / hdg 57

(B) RW 24 length 5751 ft width 150 ft
---- / hdg 237

Location; KLOZ
Day. 20 / Time. 19.53 Zulu
* Altimeter: 29.91
* Temperature: 30° c. 86°f.
* Wind from: 180° Speed 12 kn with Gusts up to 20 kn.
Dewpoint: 20° c.
Visibility: 10 Statute Miles.
Clouds: Scattered 4600 ft.
Clouds: Broken 6000 ft.

KLOZ 201953Z AUTO 18012G20KT 10SM SCT046 BKN060 30/20 A2991 RMK AO2 SLP116 T03000200


Wind From 180°
Speed 12 kn.

 
 
jpsmedia.com for Web Design worldairports.se 2018   terms of use